Time;durP1;ratioP1;P1;durP2;ratioP2;P2;SDS_P1;SDS_P2;PMS_P1;PMS_P2;Temp;Humidity;BMP_temperature;BMP_pressure;BME280_temperature;BME280_humidity;BME280_pressure;Samples;Min_cycle;Max_cycle;Signal;HPM_P1;HPM_P2
2023/08/30 00:01:28;;;;;;;4.33;3.60;;;13.10;99.90;;;;;;5055907;28;20222;-83
2023/08/30 00:03:55;;;;;;;4.33;3.47;;;13.10;99.90;;;;;;5054169;28;20250;-82
2023/08/30 00:06:22;;;;;;;3.77;3.20;;;13.10;99.90;;;;;;5049629;28;20300;-83
2023/08/30 00:08:49;;;;;;;3.90;3.50;;;13.10;99.90;;;;;;5061887;28;20704;-82
2023/08/30 00:11:15;;;;;;;5.73;3.13;;;13.00;99.90;;;;;;5057952;28;20315;-81
2023/08/30 00:13:43;;;;;;;4.10;3.23;;;13.00;99.90;;;;;;5062284;28;20233;-82
2023/08/30 00:16:10;;;;;;;6.87;3.43;;;13.00;99.90;;;;;;5055849;28;20320;-82
2023/08/30 00:18:37;;;;;;;3.37;3.07;;;13.00;99.90;;;;;;5062293;28;20228;-82
2023/08/30 00:21:04;;;;;;;4.00;3.20;;;12.90;99.90;;;;;;5055584;28;20228;-82
2023/08/30 00:23:30;;;;;;;3.30;3.00;;;12.90;99.90;;;;;;5050218;28;20603;-82
2023/08/30 00:25:57;;;;;;;3.73;3.37;;;12.90;99.90;;;;;;5060652;28;20227;-83
2023/08/30 00:28:24;;;;;;;4.33;3.37;;;12.90;99.90;;;;;;5066808;28;20241;-82
2023/08/30 00:30:55;;;;;;;4.27;3.30;;;12.80;99.90;;;;;;5065851;28;20316;-82
2023/08/30 00:33:22;;;;;;;4.00;3.50;;;12.80;99.90;;;;;;5049389;28;20235;-82
2023/08/30 00:35:56;;;;;;;3.53;3.23;;;12.80;99.90;;;;;;5065018;28;22089;-82
2023/08/30 00:38:23;;;;;;;3.90;3.30;;;12.70;99.90;;;;;;5065184;28;23010;-83
2023/08/30 00:40:50;;;;;;;3.60;2.83;;;12.70;99.90;;;;;;5051399;28;20282;-83
2023/08/30 00:43:17;;;;;;;3.90;3.50;;;12.70;99.90;;;;;;5063432;28;20222;-82
2023/08/30 00:45:43;;;;;;;5.20;4.57;;;12.60;99.90;;;;;;5054891;28;20248;-82
2023/08/30 00:48:12;;;;;;;4.80;4.00;;;12.60;99.90;;;;;;5052549;28;20232;-81
2023/08/30 00:50:40;;;;;;;4.63;3.37;;;12.50;99.90;;;;;;5059417;28;20277;-81
2023/08/30 00:53:08;;;;;;;4.50;3.70;;;12.50;99.90;;;;;;5056934;28;20249;-82
2023/08/30 00:55:35;;;;;;;4.50;3.43;;;12.40;99.90;;;;;;5047937;28;20211;-82
2023/08/30 00:58:03;;;;;;;4.93;3.97;;;12.40;99.90;;;;;;5058712;28;20226;-83
2023/08/30 01:00:30;;;;;;;4.43;3.90;;;12.40;99.90;;;;;;5068534;28;20312;-83
2023/08/30 01:02:57;;;;;;;4.43;4.00;;;12.40;99.90;;;;;;5081220;28;20221;-83
2023/08/30 01:05:25;;;;;;;4.23;3.77;;;12.30;99.90;;;;;;5081393;28;20226;-82
2023/08/30 01:07:52;;;;;;;3.90;3.43;;;12.30;99.90;;;;;;5062546;28;20700;-82
2023/08/30 01:10:22;;;;;;;3.93;3.13;;;12.30;99.90;;;;;;5070034;28;20226;-82
2023/08/30 01:12:52;;;;;;;7.30;3.83;;;12.20;99.90;;;;;;5067162;28;20279;-82
2023/08/30 01:15:20;;;;;;;5.03;4.23;;;12.20;99.90;;;;;;5068197;28;20225;-83
2023/08/30 01:17:48;;;;;;;7.43;4.40;;;12.20;99.90;;;;;;5070582;28;20220;-83
2023/08/30 01:20:18;;;;;;;4.60;3.90;;;12.10;99.90;;;;;;5069375;28;20582;-82
2023/08/30 01:22:58;;;;;;;4.40;4.00;;;12.10;99.90;;;;;;5087304;28;20239;-82
2023/08/30 01:25:39;;;;;;;4.77;4.00;;;12.10;99.90;;;;;;5067802;28;20239;-82
2023/08/30 01:28:08;;;;;;;5.17;3.83;;;12.00;99.90;;;;;;5067678;28;20625;-81
2023/08/30 01:30:38;;;;;;;4.93;4.17;;;12.00;99.90;;;;;;5086191;28;20692;-82
2023/08/30 01:33:06;;;;;;;4.53;4.13;;;11.90;99.90;;;;;;5093183;28;20235;-82
2023/08/30 01:35:35;;;;;;;6.20;4.50;;;11.90;99.90;;;;;;5087519;28;20217;-81
2023/08/30 01:38:03;;;;;;;7.10;4.70;;;11.90;99.90;;;;;;5060645;28;20262;-82
2023/08/30 01:40:35;;;;;;;4.50;4.10;;;11.80;99.90;;;;;;5071886;28;20291;-80
2023/08/30 01:43:04;;;;;;;4.90;4.47;;;11.80;99.90;;;;;;5068307;28;20246;-81
2023/08/30 01:45:33;;;;;;;4.87;3.87;;;11.70;99.90;;;;;;5067742;28;20317;-81
2023/08/30 01:48:00;;;;;;;6.70;4.47;;;11.70;99.90;;;;;;5068315;28;20294;-81
2023/08/30 01:50:28;;;;;;;4.90;3.80;;;11.70;99.90;;;;;;5067097;28;20310;-81
2023/08/30 01:52:56;;;;;;;4.50;3.83;;;11.60;99.90;;;;;;5100867;28;20219;-80
2023/08/30 01:55:27;;;;;;;4.70;3.70;;;11.60;99.90;;;;;;5088232;28;21077;-80
2023/08/30 01:57:54;;;;;;;4.93;4.43;;;11.60;99.90;;;;;;5107077;28;20723;-80
2023/08/30 02:00:21;;;;;;;5.63;4.50;;;11.50;99.90;;;;;;5088412;28;20253;-80
2023/08/30 02:02:49;;;;;;;4.47;4.07;;;11.50;99.90;;;;;;5091187;28;20308;-81
2023/08/30 02:05:16;;;;;;;4.70;4.20;;;11.50;99.90;;;;;;5091129;28;20631;-81
2023/08/30 02:07:52;;;;;;;4.93;4.30;;;11.40;99.90;;;;;;5078274;28;20222;-80
2023/08/30 02:10:23;;;;;;;4.63;4.13;;;11.40;99.90;;;;;;5086957;28;20971;-82
2023/08/30 02:12:53;;;;;;;4.47;3.73;;;11.40;99.90;;;;;;5087074;28;20305;-82
2023/08/30 02:15:20;;;;;;;4.50;4.10;;;11.40;99.90;;;;;;5069168;28;20225;-82
2023/08/30 02:17:50;;;;;;;4.57;4.03;;;11.40;99.90;;;;;;5086542;28;20222;-81
2023/08/30 02:20:17;;;;;;;4.00;3.60;;;11.30;99.90;;;;;;5085264;28;20244;-81
2023/08/30 02:22:44;;;;;;;4.67;4.20;;;11.30;99.90;;;;;;5067320;28;20234;-81
2023/08/30 02:25:11;;;;;;;4.57;4.13;;;11.30;99.90;;;;;;5084764;28;20236;-81
2023/08/30 02:27:38;;;;;;;5.10;4.60;;;11.20;99.90;;;;;;5067402;28;20226;-81
2023/08/30 02:30:06;;;;;;;6.07;5.47;;;11.20;99.90;;;;;;5066972;28;20780;-81
2023/08/30 02:32:32;;;;;;;5.07;4.10;;;11.20;99.90;;;;;;5067373;28;20226;-81
2023/08/30 02:35:01;;;;;;;8.00;5.30;;;11.20;99.90;;;;;;5068870;28;20311;-81
2023/08/30 02:37:26;;;;;;;5.30;4.80;;;11.20;99.90;;;;;;5087430;28;20272;-81
2023/08/30 02:39:53;;;;;;;5.80;4.70;;;11.20;99.90;;;;;;5085695;28;20222;-82
2023/08/30 02:42:20;;;;;;;4.93;4.37;;;11.20;99.90;;;;;;5066716;28;20707;-81
2023/08/30 02:44:46;;;;;;;5.70;5.17;;;11.20;99.90;;;;;;5067352;28;20261;-81
2023/08/30 02:47:13;;;;;;;4.40;3.90;;;11.20;99.90;;;;;;5066825;28;20798;-82
2023/08/30 02:49:40;;;;;;;4.17;3.77;;;11.30;99.90;;;;;;5088358;28;20282;-82
2023/08/30 02:52:08;;;;;;;3.97;3.57;;;11.30;99.90;;;;;;5088442;28;20242;-82
2023/08/30 02:54:35;;;;;;;5.00;4.60;;;11.30;99.90;;;;;;5094931;28;20218;-82
2023/08/30 02:57:01;;;;;;;4.93;4.53;;;11.30;99.90;;;;;;5094538;28;20233;-81
2023/08/30 02:59:28;;;;;;;6.67;5.27;;;11.30;99.90;;;;;;5084264;28;20228;-81
2023/08/30 03:01:55;;;;;;;6.03;4.97;;;11.30;99.90;;;;;;5074917;28;20226;-81
2023/08/30 03:04:22;;;;;;;5.73;5.00;;;11.30;99.90;;;;;;5091274;28;20236;-80
2023/08/30 03:06:48;;;;;;;6.00;4.57;;;11.40;99.90;;;;;;5072997;28;20275;-84
2023/08/30 03:09:16;;;;;;;4.83;4.37;;;11.40;99.90;;;;;;5073358;28;20219;-82
2023/08/30 03:11:45;;;;;;;6.57;5.00;;;11.40;99.90;;;;;;5070502;28;20212;-81
2023/08/30 03:14:11;;;;;;;5.07;4.13;;;11.40;99.90;;;;;;5072906;28;20880;-82
2023/08/30 03:16:38;;;;;;;6.27;4.43;;;11.40;99.90;;;;;;5066007;28;20773;-82
2023/08/30 03:19:06;;;;;;;5.47;4.97;;;11.50;99.90;;;;;;5067233;28;20223;-82
2023/08/30 03:21:33;;;;;;;5.20;4.37;;;11.50;99.90;;;;;;5061244;28;20247;-82
2023/08/30 03:23:59;;;;;;;6.13;4.80;;;11.50;99.90;;;;;;5069227;28;20223;-82
2023/08/30 03:26:27;;;;;;;5.97;4.17;;;11.50;99.90;;;;;;5072918;28;20235;-82
2023/08/30 03:28:55;;;;;;;5.40;4.90;;;11.50;99.90;;;;;;5061043;28;20953;-81
2023/08/30 03:31:23;;;;;;;5.43;4.60;;;11.50;99.90;;;;;;5051549;28;20519;-81
2023/08/30 03:33:50;;;;;;;7.67;5.20;;;11.50;99.90;;;;;;5067528;28;20226;-81
2023/08/30 03:36:19;;;;;;;5.40;4.80;;;11.50;99.90;;;;;;5073094;28;20742;-82
2023/08/30 03:38:46;;;;;;;5.23;4.67;;;11.50;99.90;;;;;;5073618;28;20812;-81
2023/08/30 03:41:13;;;;;;;6.20;4.10;;;11.40;99.90;;;;;;5087110;28;20237;-82
2023/08/30 03:43:41;;;;;;;4.67;4.07;;;11.40;99.90;;;;;;5051339;28;21021;-82
2023/08/30 03:46:11;;;;;;;6.00;4.77;;;11.40;99.90;;;;;;5050003;28;20229;-82
2023/08/30 03:48:38;;;;;;;4.53;4.13;;;11.40;99.90;;;;;;5060355;28;20275;-83
2023/08/30 03:51:05;;;;;;;6.67;3.70;;;11.40;99.90;;;;;;5066922;28;20236;-83
2023/08/30 03:53:33;;;;;;;4.83;4.00;;;11.40;99.90;;;;;;5072148;28;20723;-83
2023/08/30 03:56:00;;;;;;;4.73;3.80;;;11.40;99.90;;;;;;5089586;28;20217;-83
2023/08/30 03:58:27;;;;;;;5.07;3.80;;;11.30;99.90;;;;;;5070088;28;20596;-83
2023/08/30 04:00:55;;;;;;;4.97;3.83;;;11.30;99.90;;;;;;5070813;28;20299;-83
2023/08/30 04:03:21;;;;;;;4.67;3.90;;;11.30;99.90;;;;;;5086676;28;20254;-83
2023/08/30 04:05:48;;;;;;;5.77;4.13;;;11.30;99.90;;;;;;5085342;28;20217;-82
2023/08/30 04:08:15;;;;;;;5.77;4.93;;;11.30;99.90;;;;;;5091570;28;20221;-83
2023/08/30 04:10:43;;;;;;;5.43;4.93;;;11.30;99.90;;;;;;5083781;28;20717;-81
2023/08/30 04:13:10;;;;;;;6.27;5.63;;;11.30;99.90;;;;;;5090379;28;20223;-82
2023/08/30 04:15:37;;;;;;;7.57;5.43;;;11.30;99.90;;;;;;5069595;28;20689;-81
2023/08/30 04:18:07;;;;;;;6.63;5.93;;;11.30;99.90;;;;;;5087583;28;20215;-81
2023/08/30 04:20:34;;;;;;;7.27;5.60;;;11.30;99.90;;;;;;5064300;28;20225;-81
2023/08/30 04:23:02;;;;;;;7.83;4.83;;;11.30;99.90;;;;;;5070650;28;20235;-81
2023/08/30 04:25:30;;;;;;;6.23;5.37;;;11.30;99.90;;;;;;5076279;28;20704;-81
2023/08/30 04:27:58;;;;;;;6.03;5.17;;;11.30;99.90;;;;;;5070969;28;20222;-79
2023/08/30 04:30:25;;;;;;;9.93;6.47;;;11.30;99.90;;;;;;5071304;28;20605;-82
2023/08/30 04:32:52;;;;;;;7.43;6.27;;;11.30;99.90;;;;;;5072510;28;20229;-81
2023/08/30 04:35:21;;;;;;;9.60;6.50;;;11.30;99.90;;;;;;5072423;28;20306;-81
2023/08/30 04:37:48;;;;;;;7.53;6.77;;;11.30;99.90;;;;;;5091388;28;20273;-80
2023/08/30 04:40:15;;;;;;;6.93;6.23;;;11.30;99.90;;;;;;5071773;28;20218;-81
2023/08/30 04:42:42;;;;;;;8.13;6.97;;;11.30;99.90;;;;;;5072727;28;20241;-81
2023/08/30 04:45:09;;;;;;;7.37;6.67;;;11.30;99.90;;;;;;5066870;28;20234;-81
2023/08/30 04:47:36;;;;;;;8.83;7.30;;;11.40;99.90;;;;;;5071784;28;20227;-81
2023/08/30 04:50:04;;;;;;;8.40;7.17;;;11.40;99.90;;;;;;5057655;28;20288;-81
2023/08/30 04:52:32;;;;;;;9.00;7.97;;;11.40;99.90;;;;;;5060314;28;20317;-82
2023/08/30 04:54:59;;;;;;;7.57;6.80;;;11.40;99.90;;;;;;5075806;28;20795;-82
2023/08/30 04:57:27;;;;;;;7.10;6.40;;;11.50;99.90;;;;;;5074220;28;20227;-82
2023/08/30 04:59:54;;;;;;;8.33;7.33;;;11.50;99.90;;;;;;5074028;28;20238;-81
2023/08/30 05:02:21;;;;;;;8.70;7.80;;;11.60;99.90;;;;;;5071518;28;20328;-81
2023/08/30 05:05:15;;;;;;;11.47;8.73;;;11.60;99.90;;;;;;5065774;28;20235;-80
2023/08/30 05:07:43;;;;;;;8.90;8.00;;;11.70;99.90;;;;;;5061247;28;20222;-81
2023/08/30 05:10:10;;;;;;;13.60;9.20;;;11.70;99.90;;;;;;5064065;28;20326;-81
2023/08/30 05:12:38;;;;;;;11.57;9.07;;;11.80;99.90;;;;;;5066230;28;20921;-82
2023/08/30 05:15:06;;;;;;;10.20;8.73;;;11.90;99.90;;;;;;5072738;28;20229;-82
2023/08/30 05:17:33;;;;;;;9.60;8.47;;;11.90;99.90;;;;;;5077860;28;20230;-82
2023/08/30 05:20:00;;;;;;;10.00;8.23;;;12.00;99.90;;;;;;5114233;23;20228;-84
2023/08/30 05:22:27;;;;;;;9.73;8.30;;;12.10;99.90;;;;;;5088280;28;20222;-81
2023/08/30 05:24:56;;;;;;;9.63;8.17;;;12.10;99.90;;;;;;5086751;28;20245;-81
2023/08/30 05:27:23;;;;;;;9.40;8.40;;;12.20;99.90;;;;;;5082599;28;20740;-81
2023/08/30 05:29:50;;;;;;;9.87;8.47;;;12.30;99.90;;;;;;5084881;28;20248;-81
2023/08/30 05:32:17;;;;;;;9.30;7.23;;;12.40;99.90;;;;;;5077295;28;20290;-81
2023/08/30 05:35:02;;;;;;;8.27;7.47;;;12.50;99.90;;;;;;5061995;28;20245;-81
2023/08/30 05:37:47;;;;;;;9.23;7.97;;;12.60;99.90;;;;;;5070851;28;20232;-81
2023/08/30 05:40:42;;;;;;;9.40;8.40;;;12.70;99.90;;;;;;5064193;28;20719;-81
2023/08/30 05:43:09;;;;;;;11.30;8.07;;;12.80;99.90;;;;;;5068943;28;20228;-81
2023/08/30 05:45:35;;;;;;;7.80;7.00;;;12.90;99.90;;;;;;5069560;28;20278;-81
2023/08/30 05:48:02;;;;;;;8.13;6.97;;;13.00;99.90;;;;;;5072252;28;20214;-81
2023/08/30 05:50:31;;;;;;;8.10;7.07;;;13.10;99.90;;;;;;5068140;28;20529;-81
2023/08/30 05:52:57;;;;;;;7.53;6.73;;;13.20;99.90;;;;;;5067653;28;20268;-81
2023/08/30 05:55:24;;;;;;;7.17;6.47;;;13.30;99.90;;;;;;5067288;28;20238;-81
2023/08/30 05:57:52;;;;;;;8.17;6.73;;;13.40;99.90;;;;;;5066740;28;20739;-80
2023/08/30 06:00:20;;;;;;;7.63;6.43;;;13.40;99.90;;;;;;5060967;28;20252;-79
2023/08/30 06:02:46;;;;;;;8.77;6.80;;;13.50;99.90;;;;;;5054815;28;20259;-79
2023/08/30 06:05:13;;;;;;;7.20;6.50;;;13.60;99.90;;;;;;5068622;28;20317;-79
2023/08/30 06:07:40;;;;;;;8.40;6.60;;;13.70;99.90;;;;;;5066057;28;20229;-79
2023/08/30 06:10:07;;;;;;;7.10;6.37;;;13.80;99.90;;;;;;5075936;28;20225;-79
2023/08/30 06:12:34;;;;;;;6.90;6.20;;;13.90;99.90;;;;;;5062668;28;20308;-78
2023/08/30 06:15:02;;;;;;;8.37;6.00;;;14.00;99.90;;;;;;5065346;28;20242;-78
2023/08/30 06:17:30;;;;;;;7.40;6.43;;;14.10;99.90;;;;;;5059303;28;20226;-78
2023/08/30 06:19:56;;;;;;;6.30;5.63;;;14.20;99.90;;;;;;5067227;28;20573;-78
2023/08/30 06:22:23;;;;;;;7.93;6.40;;;14.30;99.90;;;;;;5065008;28;20230;-78
2023/08/30 06:24:50;;;;;;;7.80;6.13;;;14.50;99.90;;;;;;5062159;28;20230;-79
2023/08/30 06:27:16;;;;;;;6.63;5.97;;;14.50;99.90;;;;;;5064342;28;20228;-79
2023/08/30 06:29:43;;;;;;;8.40;6.03;;;14.60;99.90;;;;;;5077065;28;20229;-78
2023/08/30 06:32:11;;;;;;;7.07;6.03;;;14.70;99.90;;;;;;5069469;28;20233;-79
2023/08/30 06:34:38;;;;;;;6.57;5.77;;;14.70;99.90;;;;;;5064362;28;20588;-79
2023/08/30 06:37:05;;;;;;;7.37;6.40;;;14.80;99.90;;;;;;5067668;28;20222;-78
2023/08/30 06:39:36;;;;;;;6.03;5.43;;;14.80;99.90;;;;;;5065507;28;20242;-79
2023/08/30 06:42:02;;;;;;;8.27;5.80;;;14.90;99.90;;;;;;5057139;28;20234;-80
2023/08/30 06:44:29;;;;;;;5.37;4.87;;;15.00;99.90;;;;;;5072046;28;20232;-81
2023/08/30 06:46:56;;;;;;;6.90;5.73;;;15.00;99.90;;;;;;5070076;28;20226;-78
2023/08/30 06:49:24;;;;;;;6.30;5.07;;;15.20;99.90;;;;;;5067966;28;20229;-81
2023/08/30 06:51:51;;;;;;;6.20;5.70;;;15.20;99.90;;;;;;5071914;28;20233;-78
2023/08/30 06:54:18;;;;;;;6.17;5.60;;;15.30;99.90;;;;;;5065035;28;20712;-78
2023/08/30 06:56:57;;;;;;;6.17;5.57;;;15.40;99.90;;;;;;5069455;28;20224;-77
2023/08/30 06:59:24;;;;;;;7.17;5.53;;;15.50;99.90;;;;;;5069831;28;20242;-79
2023/08/30 07:01:51;;;;;;;6.63;5.07;;;15.50;99.90;;;;;;5070327;28;20227;-79
2023/08/30 07:04:17;;;;;;;7.10;5.27;;;15.60;99.90;;;;;;5070993;28;20227;-79
2023/08/30 07:06:45;;;;;;;6.80;5.53;;;15.70;99.90;;;;;;5069587;28;20720;-79
2023/08/30 07:09:12;;;;;;;7.00;5.40;;;15.80;99.90;;;;;;5049485;28;20220;-79
2023/08/30 07:11:39;;;;;;;5.90;5.27;;;16.00;99.90;;;;;;5047955;28;20239;-78
2023/08/30 07:14:05;;;;;;;9.17;5.30;;;16.10;99.90;;;;;;5048145;28;20230;-79
2023/08/30 07:16:32;;;;;;;5.73;5.23;;;16.20;99.90;;;;;;5049753;28;20227;-80
2023/08/30 07:19:00;;;;;;;5.43;4.93;;;16.30;99.90;;;;;;5051137;28;21106;-79
2023/08/30 07:21:26;;;;;;;7.00;5.03;;;16.40;99.90;;;;;;5049463;28;20293;-79
2023/08/30 07:23:54;;;;;;;6.53;5.00;;;16.40;99.90;;;;;;5085709;28;20313;-79
2023/08/30 07:26:21;;;;;;;6.37;5.10;;;16.60;99.90;;;;;;5089217;28;20241;-82
2023/08/30 07:28:48;;;;;;;5.63;4.83;;;16.60;99.90;;;;;;5068608;28;20227;-82
2023/08/30 07:31:16;;;;;;;8.00;5.20;;;16.70;99.90;;;;;;5066363;28;20230;-82
2023/08/30 07:33:42;;;;;;;7.73;5.37;;;16.70;99.90;;;;;;5062343;28;20758;-81
2023/08/30 07:36:09;;;;;;;5.60;4.67;;;16.80;99.90;;;;;;5068173;28;20678;-82
2023/08/30 07:38:36;;;;;;;5.90;5.10;;;16.90;99.90;;;;;;5069426;28;20587;-82
2023/08/30 07:41:04;;;;;;;5.85;5.20;;;17.00;99.90;;;;;;5078787;28;20227;-81
2023/08/30 07:43:31;;;;;;;5.45;4.95;;;17.00;99.90;;;;;;5071655;28;20227;-81
2023/08/30 07:45:59;;;;;;;5.70;5.15;;;17.20;99.90;;;;;;5076107;28;20226;-82
2023/08/30 07:48:26;;;;;;;5.82;4.47;;;17.40;99.90;;;;;;5071602;28;20223;-82
2023/08/30 07:50:52;;;;;;;7.78;5.22;;;17.60;99.90;;;;;;5068656;28;20234;-81
2023/08/30 07:53:19;;;;;;;6.07;4.40;;;18.00;99.90;;;;;;5076046;28;20225;-82
2023/08/30 07:55:49;;;;;;;5.88;4.47;;;18.40;99.90;;;;;;5072619;28;20227;-83
2023/08/30 07:58:18;;;;;;;5.32;4.80;;;18.80;99.90;;;;;;5068848;28;20285;-81
2023/08/30 08:00:45;;;;;;;4.93;4.50;;;19.30;99.90;;;;;;5064164;28;20241;-81
2023/08/30 08:03:13;;;;;;;6.47;4.85;;;19.80;99.90;;;;;;5065398;28;20719;-82
2023/08/30 08:05:42;;;;;;;7.10;4.82;;;20.20;99.90;;;;;;5062697;28;20236;-81
2023/08/30 08:08:10;;;;;;;5.45;4.40;;;20.50;99.90;;;;;;5058600;28;20229;-82
2023/08/30 08:10:37;;;;;;;7.00;5.10;;;20.90;99.90;;;;;;5057287;28;20231;-81
2023/08/30 08:13:04;;;;;;;5.32;4.78;;;21.20;99.90;;;;;;5066698;28;20242;-81
2023/08/30 08:15:33;;;;;;;5.72;4.80;;;21.60;99.90;;;;;;5064260;28;20307;-81
2023/08/30 08:18:00;;;;;;;5.72;5.13;;;21.90;99.90;;;;;;5064681;28;20224;-82
2023/08/30 08:20:27;;;;;;;6.40;4.82;;;22.20;99.90;;;;;;5079641;28;20591;-81
2023/08/30 08:22:53;;;;;;;6.13;4.85;;;22.50;99.90;;;;;;5056997;28;20230;-82
2023/08/30 08:25:21;;;;;;;6.45;5.35;;;22.90;99.90;;;;;;5057090;28;20223;-82
2023/08/30 08:27:48;;;;;;;5.63;5.07;;;23.10;99.90;;;;;;5071927;28;20873;-81
2023/08/30 08:30:15;;;;;;;5.78;5.00;;;23.40;99.90;;;;;;5063993;28;20219;-82
2023/08/30 08:32:43;;;;;;;8.32;5.00;;;23.70;99.90;;;;;;5066045;28;20223;-81
2023/08/30 08:35:10;;;;;;;5.80;5.30;;;24.00;99.90;;;;;;5064996;28;20989;-83
2023/08/30 08:37:36;;;;;;;5.40;4.90;;;24.20;98.90;;;;;;5067505;28;20223;-82
2023/08/30 08:40:08;;;;;;;5.60;5.10;;;24.40;98.20;;;;;;5066047;28;20231;-81
2023/08/30 08:42:35;;;;;;;5.90;5.30;;;24.50;98.40;;;;;;5054156;28;20220;-81
2023/08/30 08:45:04;;;;;;;6.05;5.45;;;24.70;98.30;;;;;;5068573;28;20227;-81
2023/08/30 08:47:31;;;;;;;6.95;5.00;;;24.90;98.20;;;;;;5066291;28;20223;-81
2023/08/30 08:50:00;;;;;;;5.53;4.75;;;25.10;97.10;;;;;;5055230;28;20937;-81
2023/08/30 08:52:27;;;;;;;6.07;4.72;;;25.20;96.90;;;;;;5062914;28;20303;-81
2023/08/30 08:54:55;;;;;;;6.35;5.75;;;25.30;96.70;;;;;;5063010;28;20224;-81
2023/08/30 08:57:22;;;;;;;6.28;5.68;;;25.20;94.50;;;;;;5070585;28;20227;-82
2023/08/30 08:59:50;;;;;;;7.07;5.75;;;25.00;94.90;;;;;;5067771;28;20233;-81
2023/08/30 09:02:17;;;;;;;6.75;5.60;;;24.90;95.20;;;;;;5055840;28;20598;-82
2023/08/30 09:04:44;;;;;;;6.43;5.65;;;24.50;94.80;;;;;;5068076;28;20221;-82
2023/08/30 09:07:12;;;;;;;7.53;6.22;;;24.10;95.40;;;;;;5078371;28;20898;-82
2023/08/30 09:09:40;;;;;;;8.35;6.35;;;23.80;95.50;;;;;;5064774;28;20230;-81
2023/08/30 09:12:07;;;;;;;6.85;5.75;;;23.50;96.30;;;;;;5059859;28;20224;-81
2023/08/30 09:14:33;;;;;;;8.32;5.15;;;23.40;96.80;;;;;;5060510;28;20215;-82
2023/08/30 09:17:01;;;;;;;9.75;5.95;;;23.20;97.50;;;;;;5059038;28;20243;-82
2023/08/30 09:19:28;;;;;;;7.43;6.05;;;23.10;97.40;;;;;;5062637;28;20229;-82
2023/08/30 09:21:56;;;;;;;7.72;6.00;;;23.10;97.70;;;;;;5069727;28;20231;-82
2023/08/30 09:24:24;;;;;;;8.18;5.45;;;23.10;97.70;;;;;;5061305;28;20225;-82
2023/08/30 09:26:52;;;;;;;7.43;6.07;;;23.00;97.10;;;;;;5073765;28;20237;-82
2023/08/30 09:29:20;;;;;;;7.30;5.65;;;22.90;97.30;;;;;;5068135;28;20253;-82
2023/08/30 09:31:47;;;;;;;7.13;5.78;;;22.90;97.60;;;;;;5061868;28;20232;-83
2023/08/30 09:34:14;;;;;;;8.48;5.82;;;22.80;97.50;;;;;;5061142;28;20234;-81
2023/08/30 09:36:42;;;;;;;9.82;6.95;;;22.70;97.30;;;;;;5068576;28;20229;-82
2023/08/30 09:39:10;;;;;;;6.93;5.70;;;22.60;96.50;;;;;;5054200;28;20326;-81
2023/08/30 09:41:41;;;;;;;8.73;6.45;;;22.50;96.90;;;;;;5065474;28;20223;-82
2023/08/30 09:44:09;;;;;;;6.50;5.75;;;22.40;97.00;;;;;;5055500;28;20227;-82
2023/08/30 09:46:42;;;;;;;5.95;5.43;;;22.30;97.40;;;;;;5064749;28;20224;-81
2023/08/30 09:49:10;;;;;;;8.95;6.53;;;22.20;97.20;;;;;;5057316;28;20657;-81
2023/08/30 09:51:41;;;;;;;7.82;5.63;;;22.10;96.10;;;;;;5065700;28;20219;-82
2023/08/30 09:54:14;;;;;;;6.65;5.93;;;22.10;96.90;;;;;;5060280;28;20989;-83
2023/08/30 09:56:42;;;;;;;6.88;5.45;;;22.10;96.50;;;;;;5076054;28;20227;-81
2023/08/30 09:59:10;;;;;;;6.53;5.60;;;22.10;96.30;;;;;;5067801;28;20247;-81
2023/08/30 10:01:38;;;;;;;7.35;5.57;;;22.10;96.00;;;;;;5071932;28;20649;-82
2023/08/30 10:04:05;;;;;;;5.82;5.20;;;22.10;96.10;;;;;;5060724;28;20235;-82
2023/08/30 10:06:33;;;;;;;6.32;5.40;;;22.10;95.80;;;;;;5047993;28;20324;-82
2023/08/30 10:09:00;;;;;;;5.90;4.30;;;22.10;95.70;;;;;;5055917;28;20223;-82
2023/08/30 10:11:29;;;;;;;6.57;4.53;;;22.10;96.40;;;;;;5066527;28;20226;-82
2023/08/30 10:13:57;;;;;;;4.72;4.10;;;22.20;96.10;;;;;;5062193;28;20227;-81
2023/08/30 10:16:27;;;;;;;6.00;4.13;;;22.30;96.50;;;;;;5071182;28;20749;-81
2023/08/30 10:19:02;;;;;;;5.07;4.20;;;22.30;96.30;;;;;;5068796;28;20234;-82
2023/08/30 10:21:30;;;;;;;5.95;4.35;;;22.40;96.00;;;;;;5058932;28;20311;-83
2023/08/30 10:23:59;;;;;;;4.15;3.72;;;22.40;95.00;;;;;;5061878;28;20306;-82
2023/08/30 10:26:28;;;;;;;6.03;3.83;;;22.40;95.10;;;;;;5065666;28;20228;-82
2023/08/30 10:28:57;;;;;;;4.95;3.75;;;22.30;95.50;;;;;;5059522;28;20219;-82
2023/08/30 10:31:24;;;;;;;7.93;4.53;;;22.30;95.60;;;;;;5060981;28;20242;-82
2023/08/30 10:33:53;;;;;;;7.03;4.15;;;22.20;95.60;;;;;;5065123;28;20219;-81
2023/08/30 10:36:23;;;;;;;7.32;4.28;;;22.20;95.30;;;;;;5057340;28;20223;-82
2023/08/30 10:38:50;;;;;;;5.70;4.10;;;22.20;95.40;;;;;;5064401;28;20284;-82
2023/08/30 10:41:21;;;;;;;9.15;5.20;;;22.20;95.70;;;;;;5065258;28;20223;-82
2023/08/30 10:43:52;;;;;;;7.15;4.63;;;22.10;94.90;;;;;;5069210;28;20219;-81
2023/08/30 10:46:30;;;;;;;5.75;4.25;;;22.00;95.60;;;;;;5067378;28;20251;-82
2023/08/30 10:48:57;;;;;;;5.60;3.90;;;21.90;96.00;;;;;;5060394;28;20219;-82
2023/08/30 10:51:37;;;;;;;5.35;4.15;;;21.90;96.30;;;;;;5066199;28;20235;-82
2023/08/30 10:54:11;;;;;;;7.40;3.88;;;21.80;94.80;;;;;;5067661;28;20215;-82
2023/08/30 10:56:47;;;;;;;6.90;3.65;;;21.70;95.40;;;;;;5058665;28;20226;-82
2023/08/30 10:59:18;;;;;;;5.78;3.83;;;21.60;94.50;;;;;;5061770;28;20219;-82
2023/08/30 11:01:46;;;;;;;5.20;3.28;;;21.60;95.00;;;;;;5067261;28;20720;-82
2023/08/30 11:04:14;;;;;;;4.88;3.50;;;21.50;95.00;;;;;;5065991;28;20227;-82
2023/08/30 11:06:42;;;;;;;6.15;3.80;;;21.40;94.80;;;;;;5069480;28;20281;-82
2023/08/30 11:09:08;;;;;;;4.35;3.47;;;21.50;95.50;;;;;;5073574;28;21839;-82
2023/08/30 11:11:37;;;;;;;4.00;3.20;;;21.50;95.80;;;;;;5064722;28;20713;-81
2023/08/30 11:14:08;;;;;;;4.70;3.58;;;21.60;95.70;;;;;;5068117;28;20306;-81
2023/08/30 11:16:35;;;;;;;4.65;3.47;;;21.80;95.80;;;;;;5070310;28;20723;-82
2023/08/30 11:19:04;;;;;;;5.10;4.00;;;22.10;95.50;;;;;;5072321;28;20227;-82
2023/08/30 11:21:32;;;;;;;4.90;3.90;;;22.40;95.50;;;;;;5060891;28;20292;-85
2023/08/30 11:23:59;;;;;;;5.38;4.20;;;22.70;94.90;;;;;;5060468;28;20282;-86
2023/08/30 11:26:26;;;;;;;4.82;3.70;;;23.00;93.80;;;;;;5059234;28;20254;-86
2023/08/30 11:28:53;;;;;;;4.95;3.42;;;23.20;94.30;;;;;;5068740;28;22475;-84
2023/08/30 11:31:22;;;;;;;4.75;3.75;;;23.40;93.70;;;;;;5066187;28;20228;-85
2023/08/30 11:33:52;;;;;;;6.45;3.45;;;23.60;93.60;;;;;;5064565;28;20227;-86
2023/08/30 11:36:22;;;;;;;3.55;3.08;;;23.60;92.00;;;;;;5056864;28;20223;-86
2023/08/30 11:38:48;;;;;;;6.90;4.05;;;23.60;92.90;;;;;;5059004;28;20251;-85
2023/08/30 11:41:15;;;;;;;4.68;3.35;;;23.60;92.30;;;;;;5061366;28;20220;-86
2023/08/30 11:43:42;;;;;;;6.30;3.53;;;23.60;92.20;;;;;;5066368;28;21001;-86
2023/08/30 11:46:09;;;;;;;4.03;2.97;;;23.40;90.90;;;;;;5060487;28;20230;-85
2023/08/30 11:48:36;;;;;;;3.58;3.00;;;23.20;91.50;;;;;;5060108;28;20220;-85
2023/08/30 11:51:04;;;;;;;3.35;2.75;;;23.10;91.80;;;;;;5063185;28;20227;-85
2023/08/30 11:53:32;;;;;;;3.50;3.10;;;23.00;92.60;;;;;;5066328;28;20222;-85
2023/08/30 11:55:59;;;;;;;3.88;2.65;;;23.00;92.60;;;;;;5060712;28;20694;-84
2023/08/30 11:58:25;;;;;;;3.38;2.47;;;23.00;92.90;;;;;;5065484;28;20307;-85
2023/08/30 12:00:54;;;;;;;3.03;2.40;;;23.10;93.00;;;;;;5066288;28;20223;-84
2023/08/30 12:03:21;;;;;;;3.42;2.47;;;23.20;92.90;;;;;;5067083;28;20218;-84
2023/08/30 12:05:49;;;;;;;2.88;2.33;;;23.30;92.30;;;;;;5062483;28;20227;-85
2023/08/30 12:08:20;;;;;;;4.78;2.65;;;23.50;92.10;;;;;;5064930;28;20307;-85
2023/08/30 12:10:48;;;;;;;4.18;2.75;;;23.60;91.40;;;;;;5063152;28;20304;-84
2023/08/30 12:13:22;;;;;;;5.78;2.47;;;23.80;90.80;;;;;;5060610;28;20693;-85
2023/08/30 12:15:48;;;;;;;3.97;2.60;;;23.90;89.40;;;;;;5065510;28;20224;-84
2023/08/30 12:18:15;;;;;;;3.17;2.83;;;24.00;89.50;;;;;;5064604;28;20227;-85
2023/08/30 12:20:53;;;;;;;4.05;3.30;;;24.00;89.50;;;;;;5063735;28;20227;-85
2023/08/30 12:23:23;;;;;;;4.22;2.92;;;23.90;85.10;;;;;;5065966;28;20223;-85
2023/08/30 12:26:05;;;;;;;4.22;3.22;;;23.70;85.80;;;;;;5067608;28;20333;-84
2023/08/30 12:28:33;;;;;;;4.00;2.90;;;23.50;84.50;;;;;;5069835;28;20726;-84
2023/08/30 12:31:00;;;;;;;5.85;3.20;;;23.40;86.40;;;;;;5060121;28;20736;-85
2023/08/30 12:33:28;;;;;;;3.63;2.83;;;23.10;84.10;;;;;;5064799;28;20685;-85
2023/08/30 12:35:55;;;;;;;5.47;3.30;;;23.10;86.00;;;;;;5062588;28;20269;-85
2023/08/30 12:38:22;;;;;;;3.88;2.90;;;23.10;88.00;;;;;;5058309;28;20323;-85
2023/08/30 12:40:49;;;;;;;3.60;2.80;;;23.10;88.40;;;;;;5057145;28;20307;-85
2023/08/30 12:43:19;;;;;;;4.88;2.83;;;23.10;89.10;;;;;;5061771;28;20222;-85
2023/08/30 12:45:47;;;;;;;4.90;2.70;;;23.20;86.60;;;;;;5055501;28;20231;-86
2023/08/30 12:48:15;;;;;;;3.40;2.70;;;23.30;86.90;;;;;;5060381;28;20254;-86
2023/08/30 12:50:43;;;;;;;4.25;3.03;;;23.30;86.50;;;;;;5058517;28;20314;-85